Time;durP1;ratioP1;P1;durP2;ratioP2;P2;SDS_P1;SDS_P2;PMS_P1;PMS_P2;Temp;Humidity;BMP_temperature;BMP_pressure;BME280_temperature;BME280_humidity;BME280_pressure;Samples;Min_cycle;Max_cycle;Signal;HPM_P1;HPM_P2
2022/08/17 00:02:06;;;;;;;10.73;4.07;;;;;;;-145.69;96.97;70485.16;5094171;28;20198;-75
2022/08/17 00:04:32;;;;;;;9.50;4.05;;;;;;;-145.69;98.75;70485.16;5093947;28;20573;-76
2022/08/17 00:06:58;;;;;;;7.93;3.60;;;;;;;-145.69;97.92;70485.16;5094032;28;20205;-77
2022/08/17 00:09:25;;;;;;;11.02;3.80;;;;;;;-145.69;97.41;70491.13;5093728;28;20557;-76
2022/08/17 00:11:51;;;;;;;6.85;3.83;;;;;;;-145.69;95.57;70495.13;5094313;28;20198;-75
2022/08/17 00:14:19;;;;;;;7.57;3.40;;;;;;;-145.69;94.98;70491.13;5114014;28;20205;-78
2022/08/17 00:16:49;;;;;;;5.30;4.00;;;;;;;-145.69;97.19;70491.13;5114312;28;20634;-76
2022/08/17 00:19:20;;;;;;;8.38;2.88;;;;;;;-145.69;96.02;70499.09;5114188;28;20197;-75
2022/08/17 00:21:48;;;;;;;9.48;3.63;;;;;;;-145.69;96.26;70491.13;5114166;28;20296;-76
2022/08/17 00:24:14;;;;;;;4.57;3.30;;;;;;;-145.69;96.01;70499.09;5113986;28;20204;-77
2022/08/17 00:26:41;;;;;;;7.32;3.63;;;;;;;-145.69;97.77;70511.03;5105445;28;20194;-76
2022/08/17 00:29:08;;;;;;;5.07;3.45;;;;;;;-145.69;98.62;70511.03;5093673;28;20213;-75
2022/08/17 00:31:37;;;;;;;3.75;3.08;;;;;;;-145.69;97.18;70520.97;5093178;28;20611;-76
2022/08/17 00:34:05;;;;;;;6.55;3.47;;;;;;;-145.69;98.33;70526.94;5093514;28;20198;-76
2022/08/17 00:36:32;;;;;;;9.10;3.80;;;;;;;-145.69;98.48;70517.00;5093403;28;20229;-76
2022/08/17 00:38:58;;;;;;;6.90;3.72;;;;;;;-145.69;97.18;70519.00;5093345;28;20206;-75
2022/08/17 00:41:26;;;;;;;7.30;3.72;;;;;;;-145.69;97.68;70519.00;5107604;28;20197;-76
2022/08/17 00:43:55;;;;;;;5.03;3.45;;;;;;;-145.69;97.13;70507.06;5113872;28;20197;-76
2022/08/17 00:46:25;;;;;;;6.38;4.07;;;;;;;-145.69;95.09;70507.06;5113699;28;20198;-76
2022/08/17 00:48:53;;;;;;;8.48;3.53;;;;;;;-145.69;94.01;70501.09;5113183;28;20272;-74
2022/08/17 00:51:26;;;;;;;7.80;3.58;;;;;;;-145.69;93.58;70509.03;5112075;28;20193;-76
2022/08/17 00:53:58;;;;;;;5.07;3.40;;;;;;;-145.69;90.67;70491.13;5100576;28;20199;-75
2022/08/17 00:56:29;;;;;;;5.18;3.00;;;;;;;-145.69;91.78;70503.06;5093315;28;20225;-75
2022/08/17 00:58:56;;;;;;;5.32;3.70;;;;;;;-145.69;91.36;70503.06;5093329;28;20232;-75
2022/08/17 01:01:23;;;;;;;4.35;3.40;;;;;;;-145.69;92.75;70511.03;5097660;28;20196;-75
2022/08/17 01:03:51;;;;;;;6.90;3.40;;;;;;;-145.69;91.56;70507.06;5113636;28;20209;-75
2022/08/17 01:06:20;;;;;;;9.32;3.63;;;;;;;-145.69;90.21;70503.06;5113433;28;20197;-74
2022/08/17 01:08:47;;;;;;;8.77;3.80;;;;;;;-145.69;92.50;70515.00;5113419;28;20669;-76
2022/08/17 01:11:14;;;;;;;7.35;4.15;;;;;;;-145.69;94.10;70536.91;5111100;28;20221;-76
2022/08/17 01:13:42;;;;;;;10.65;3.90;;;;;;;-145.69;93.84;70554.81;5092912;28;20617;-75
2022/08/17 01:16:18;;;;;;;6.05;3.40;;;;;;;-145.69;95.40;70568.72;5105810;28;20597;-75
2022/08/17 01:18:47;;;;;;;8.48;3.97;;;;;;;-145.69;95.65;70568.72;5113201;28;20250;-75
2022/08/17 01:21:28;;;;;;;8.27;3.80;;;;;;;-145.69;94.86;70576.69;5098508;28;20213;-75
2022/08/17 01:23:57;;;;;;;5.43;3.65;;;;;;;-145.69;95.37;70558.78;5093174;28;20202;-75
2022/08/17 01:26:23;;;;;;;7.15;3.78;;;;;;;-145.69;94.49;70546.84;5092601;28;20198;-76
2022/08/17 01:28:50;;;;;;;5.85;3.38;;;;;;;-145.69;96.41;70554.81;5093227;28;20205;-76
2022/08/17 01:31:17;;;;;;;4.57;3.70;;;;;;;-145.69;96.28;70560.78;5113266;28;20209;-75
2022/08/17 01:33:43;;;;;;;7.43;3.20;;;;;;;-145.69;95.92;70568.72;5113220;28;20197;-75
2022/08/17 01:36:10;;;;;;;6.03;3.65;;;;;;;-145.69;96.14;70570.72;5113087;28;20687;-76
2022/08/17 01:38:38;;;;;;;7.43;3.63;;;;;;;-145.69;92.40;70546.84;5113145;28;20283;-75
2022/08/17 01:41:11;;;;;;;5.65;3.60;;;;;;;-145.69;93.58;70552.81;5113108;28;20193;-76
2022/08/17 01:43:41;;;;;;;7.07;3.63;;;;;;;-145.69;95.17;70570.72;5104475;28;20190;-77
2022/08/17 01:46:08;;;;;;;5.13;3.15;;;;;;;-145.69;95.57;70580.66;5092865;28;20201;-76
2022/08/17 01:48:38;;;;;;;5.05;3.55;;;;;;;-145.69;96.43;70584.66;5092767;28;20198;-76
2022/08/17 01:51:07;;;;;;;5.78;3.53;;;;;;;-145.69;96.14;70592.59;5092836;28;20198;-75
2022/08/17 01:53:38;;;;;;;4.65;3.33;;;;;;;-145.69;95.87;70578.69;5092600;28;20268;-76
2022/08/17 01:56:09;;;;;;;7.15;3.65;;;;;;;-145.69;94.91;70562.75;5092500;28;20226;-76
2022/08/17 01:58:37;;;;;;;4.50;3.42;;;;;;;-145.69;93.60;70554.81;5107372;28;20193;-75
2022/08/17 02:01:05;;;;;;;7.88;3.55;;;;;;;-145.69;92.61;70542.88;5111110;28;20544;-76
2022/08/17 02:03:33;;;;;;;6.43;3.22;;;;;;;-145.69;93.09;70538.88;5114679;28;20224;-75
2022/08/17 02:06:01;;;;;;;6.45;3.30;;;;;;;-145.69;92.63;70554.81;5116587;28;20269;-75
2022/08/17 02:08:30;;;;;;;6.50;3.80;;;;;;;-145.69;93.82;70558.78;5116458;28;20205;-75
2022/08/17 02:10:56;;;;;;;5.78;3.53;;;;;;;-145.69;92.50;70532.91;5113426;28;20540;-75
2022/08/17 02:13:28;;;;;;;5.38;3.33;;;;;;;-145.69;91.66;70530.94;5096232;28;20202;-74
2022/08/17 02:15:54;;;;;;;10.18;3.78;;;;;;;-145.69;92.98;70536.91;5096181;28;20230;-74
2022/08/17 02:18:21;;;;;;;4.18;3.20;;;;;;;-145.69;93.21;70538.88;5096110;28;20209;-75
2022/08/17 02:20:47;;;;;;;5.75;3.30;;;;;;;-145.69;94.73;70552.81;5095915;28;20198;-76
2022/08/17 02:23:14;;;;;;;5.90;3.00;;;;;;;-145.69;98.98;70558.78;5095832;28;20202;-75
2022/08/17 02:25:46;;;;;;;4.55;3.67;;;;;;;-145.69;99.29;70582.66;5096118;28;20186;-75
2022/08/17 02:28:13;;;;;;;5.20;3.22;;;;;;;-145.69;100.00;70606.53;5095931;28;20202;-75
2022/08/17 02:30:42;;;;;;;5.30;3.70;;;;;;;-145.69;100.00;70610.50;5095877;28;20209;-75
2022/08/17 02:33:08;;;;;;;5.75;3.65;;;;;;;-145.69;100.00;70604.53;5094878;28;20205;-76
2022/08/17 02:35:35;;;;;;;7.22;3.83;;;;;;;-145.69;100.00;70620.44;5095613;28;20206;-76
2022/08/17 02:38:03;;;;;;;10.73;4.55;;;;;;;-145.69;100.00;70622.44;5095541;28;20289;-75
2022/08/17 02:40:29;;;;;;;6.93;4.15;;;;;;;-145.69;100.00;70620.44;5081495;28;20207;-75
2022/08/17 02:42:56;;;;;;;5.00;4.00;;;;;;;-145.69;100.00;70618.47;5075367;28;20798;-75
2022/08/17 02:45:24;;;;;;;9.38;4.45;;;;;;;-145.69;100.00;70628.41;5075205;28;20206;-75
2022/08/17 02:47:52;;;;;;;7.65;4.28;;;;;;;-145.69;100.00;70652.28;5075300;28;20206;-75
2022/08/17 02:50:23;;;;;;;5.80;4.22;;;;;;;-145.69;100.00;70674.16;5075324;28;20210;-75
2022/08/17 02:52:51;;;;;;;7.65;4.07;;;;;;;-145.69;100.00;70690.09;5075284;28;20203;-74
2022/08/17 02:55:21;;;;;;;7.72;4.22;;;;;;;-145.69;100.00;70708.00;5094726;28;20537;-76
2022/08/17 02:57:49;;;;;;;9.60;4.57;;;;;;;-145.69;100.00;70698.03;5087073;28;20227;-76
2022/08/17 03:00:20;;;;;;;10.05;4.30;;;;;;;-145.69;100.00;70690.09;5074993;28;20392;-75
2022/08/17 03:02:47;;;;;;;6.07;4.20;;;;;;;-145.69;100.00;70654.28;5074818;28;20199;-77
2022/08/17 03:05:17;;;;;;;7.13;4.18;;;;;;;-145.69;100.00;70682.13;5074753;28;20277;-75
2022/08/17 03:07:44;;;;;;;6.32;4.30;;;;;;;-145.69;100.00;70698.03;5091053;28;20564;-76
2022/08/17 03:10:11;;;;;;;7.97;4.30;;;;;;;-145.69;100.00;70709.97;5115444;28;20208;-75
2022/08/17 03:12:40;;;;;;;6.53;4.25;;;;;;;-145.69;100.00;70733.84;5115353;28;20193;-75
2022/08/17 03:15:09;;;;;;;6.75;4.40;;;;;;;-145.69;100.00;70729.88;5115238;28;20204;-75
2022/08/17 03:17:36;;;;;;;6.60;4.43;;;;;;;-145.69;100.00;70733.84;5114955;28;20228;-75
2022/08/17 03:20:04;;;;;;;7.28;4.85;;;;;;;-145.69;100.00;70717.94;5115245;28;20204;-76
2022/08/17 03:22:36;;;;;;;7.53;4.53;;;;;;;-145.69;100.00;70721.91;5098965;28;20201;-75
2022/08/17 03:25:02;;;;;;;11.25;5.07;;;;;;;-145.69;100.00;70735.84;5094886;28;20206;-74
2022/08/17 03:27:28;;;;;;;10.55;4.97;;;;;;;-145.69;100.00;70737.84;5094469;28;20695;-75
2022/08/17 03:29:55;;;;;;;8.20;4.57;;;;;;;-145.69;100.00;70751.75;5094634;28;20205;-74
2022/08/17 03:32:21;;;;;;;6.47;4.28;;;;;;;-145.69;100.00;70773.66;5094720;28;20201;-75
2022/08/17 03:34:48;;;;;;;6.05;4.30;;;;;;;-145.69;100.00;70793.53;5095838;28;20201;-75
2022/08/17 03:37:15;;;;;;;6.35;4.78;;;;;;;-145.69;100.00;70811.44;5114968;27;20229;-75
2022/08/17 03:39:43;;;;;;;11.93;5.28;;;;;;;-145.69;100.00;70797.53;5114808;28;20227;-75
2022/08/17 03:42:13;;;;;;;9.85;5.00;;;;;;;-145.69;100.00;70795.53;5114782;28;20206;-75
2022/08/17 03:44:40;;;;;;;7.30;4.70;;;;;;;-145.69;100.00;70791.56;5114640;28;20205;-75
2022/08/17 03:58:03;;;;;;;12.07;5.93;;;;;;;-145.69;100.00;70787.56;5094134;28;20359;-75
2022/08/17 04:00:30;;;;;;;10.82;5.53;;;;;;;-145.69;100.00;70789.56;5109859;28;20193;-75
2022/08/17 04:02:57;;;;;;;7.10;5.13;;;;;;;-145.69;100.00;70787.56;5114442;28;20201;-75
2022/08/17 04:05:23;;;;;;;5.30;4.60;;;;;;;-145.69;100.00;70787.56;5114045;28;20230;-75
2022/08/17 04:07:50;;;;;;;8.77;5.25;;;;;;;-145.69;100.00;70793.53;5114428;28;20248;-75
2022/08/17 04:10:17;;;;;;;7.93;5.05;;;;;;;-145.69;100.00;70775.63;5114037;28;20671;-75
2022/08/17 04:12:47;;;;;;;7.13;4.82;;;;;;;-145.69;100.00;70793.53;5114257;28;20205;-75
2022/08/17 04:15:17;;;;;;;7.68;5.40;;;;;;;-145.69;100.00;70785.59;5072473;28;20788;-76
2022/08/17 04:17:44;;;;;;;10.65;4.50;;;;;;;-145.69;100.00;70785.59;5073381;28;20645;-75
2022/08/17 04:20:12;;;;;;;9.95;4.70;;;;;;;-145.69;100.00;70777.63;5073221;28;20298;-75
2022/08/17 04:22:38;;;;;;;8.35;4.75;;;;;;;-145.69;100.00;70773.66;5073543;28;20210;-75
2022/08/17 04:25:16;;;;;;;5.97;5.00;;;;;;;-145.69;100.00;70773.66;5073344;28;20199;-76
2022/08/17 04:27:42;;;;;;;7.47;4.55;;;;;;;-145.69;100.00;70763.69;5094101;28;20706;-75
2022/08/17 04:30:12;;;;;;;7.53;4.97;;;;;;;-145.69;100.00;70769.66;5113992;28;20197;-75
2022/08/17 04:32:54;;;;;;;6.38;4.72;;;;;;;-145.69;100.00;70753.75;5113739;28;20201;-75
2022/08/17 04:35:22;;;;;;;8.82;4.85;;;;;;;-145.69;100.00;70747.78;5113761;28;20659;-75
2022/08/17 04:37:48;;;;;;;8.10;5.38;;;;;;;-145.69;100.00;70739.81;5114042;28;20213;-75
2022/08/17 04:43:01;;;;;;;6.85;4.90;;;;;;;-145.69;100.00;70729.88;5073016;28;20297;-76
2022/08/17 04:45:29;;;;;;;13.73;5.70;;;;;;;-145.69;100.00;70729.88;5073238;28;20195;-75
2022/08/17 04:47:55;;;;;;;7.97;5.10;;;;;;;-145.69;100.00;70717.94;5073290;28;20581;-74
2022/08/17 04:50:22;;;;;;;8.20;5.25;;;;;;;-145.69;100.00;70698.03;5072991;28;20538;-75
2022/08/17 04:52:48;;;;;;;6.15;4.97;;;;;;;-145.69;100.00;70688.09;5080533;28;20198;-74
2022/08/17 04:55:15;;;;;;;7.05;4.70;;;;;;;-145.69;100.00;70686.09;5113572;28;20198;-75
2022/08/17 04:57:41;;;;;;;10.45;5.35;;;;;;;-145.69;100.00;70704.00;5113318;28;20213;-76
2022/08/17 05:00:09;;;;;;;7.13;5.10;;;;;;;-145.69;100.00;70717.94;5113733;28;20224;-76
2022/08/17 05:02:45;;;;;;;10.35;5.30;;;;;;;-145.69;100.00;70715.94;5113606;28;20193;-76
2022/08/17 05:05:12;;;;;;;6.50;5.22;;;;;;;-145.69;100.00;70706.00;5079269;28;20237;-75
2022/08/17 05:07:38;;;;;;;8.27;5.57;;;;;;;-145.69;100.00;70698.03;5092878;28;20239;-76
2022/08/17 05:10:06;;;;;;;7.72;4.90;;;;;;;-145.69;100.00;70678.16;5113421;28;20204;-75
2022/08/17 05:12:32;;;;;;;6.15;4.70;;;;;;;-145.69;100.00;70640.34;5113411;28;20205;-75
2022/08/17 05:14:59;;;;;;;7.10;5.20;;;;;;;-145.69;100.00;70622.44;5113425;28;20209;-74
2022/08/17 05:17:25;;;;;;;9.35;5.10;;;;;;;-145.69;100.00;70616.47;5113398;28;20246;-75
2022/08/17 05:19:53;;;;;;;8.77;4.82;;;;;;;-145.69;100.00;70600.56;5113316;28;20208;-75
2022/08/17 05:22:19;;;;;;;7.40;5.68;;;;;;;-145.69;100.00;70578.69;5097931;28;20194;-75
2022/08/17 05:24:46;;;;;;;9.18;5.20;;;;;;;-145.69;100.00;70558.78;5092732;28;20198;-75
2022/08/17 05:27:12;;;;;;;7.43;4.60;;;;;;;-145.69;100.00;70542.88;5092768;28;20240;-75
2022/08/17 05:29:39;;;;;;;7.32;4.38;;;;;;;-145.69;100.00;70540.88;5092896;28;20194;-76
2022/08/17 05:32:09;;;;;;;6.53;4.72;;;;;;;-145.69;100.00;70546.84;5092826;28;20194;-76
2022/08/17 05:34:35;;;;;;;9.65;5.35;;;;;;;-145.69;100.00;70544.84;5096124;28;20208;-75
2022/08/17 05:37:03;;;;;;;6.95;4.97;;;;;;;-145.69;100.00;70536.91;5113110;28;20245;-75
2022/08/17 05:39:30;;;;;;;6.30;4.70;;;;;;;-145.69;100.00;70528.94;5116530;28;20197;-74
2022/08/17 05:41:57;;;;;;;9.90;4.82;;;;;;;-145.69;100.00;70524.97;5117439;28;20197;-75
2022/08/17 05:44:23;;;;;;;7.35;5.05;;;;;;;-145.69;100.00;70499.09;5117241;28;20193;-75
2022/08/17 05:46:53;;;;;;;7.35;4.47;;;;;;;-145.69;98.93;70477.22;5111937;28;20218;-75
2022/08/17 05:49:26;;;;;;;11.50;4.88;;;;;;;-145.69;99.03;70465.28;5096705;28;20194;-75
2022/08/17 05:52:18;;;;;;;8.85;4.80;;;;;;;-145.69;100.00;70435.44;5096478;28;20217;-75
2022/08/17 05:54:58;;;;;;;7.78;4.38;;;;;;;-145.69;98.58;70425.50;5091656;28;20195;-75
2022/08/17 05:57:43;;;;;;;6.57;4.38;;;;;;;-145.69;96.67;70415.53;5096506;28;20202;-75
2022/08/17 06:00:15;;;;;;;6.88;4.75;;;;;;;-145.69;97.16;70415.53;5097673;28;20205;-75
2022/08/17 06:03:00;;;;;;;5.30;4.15;;;;;;;-145.69;96.02;70395.66;5080223;28;20226;-76
2022/08/17 06:05:38;;;;;;;12.32;4.45;;;;;;;-145.69;95.82;70383.72;5096293;28;20242;-76
2022/08/17 06:08:16;;;;;;;4.95;3.85;;;;;;;-145.69;91.01;70363.81;5096322;28;20225;-75
2022/08/17 06:10:47;;;;;;;6.78;4.65;;;;;;;-145.69;90.81;70349.91;5096468;28;20201;-75
2022/08/17 06:13:21;;;;;;;7.00;4.47;;;;;;;-145.69;89.92;70328.00;5096100;28;20717;-76
2022/08/17 06:15:56;;;;;;;8.90;4.18;;;;;;;-145.69;90.30;70314.09;5113226;28;20196;-75
2022/08/17 06:18:25;;;;;;;8.05;4.78;;;;;;;-145.69;90.81;70298.16;5116547;28;20212;-75
2022/08/17 06:20:56;;;;;;;4.07;3.58;;;;;;;-145.69;89.08;70284.25;5116185;28;20202;-75
2022/08/17 06:23:30;;;;;;;8.52;4.78;;;;;;;-145.69;93.10;70264.34;5116585;28;20205;-75
2022/08/17 06:26:03;;;;;;;5.20;3.95;;;;;;;-145.69;90.10;70252.41;5115475;28;20205;-75
2022/08/17 06:28:36;;;;;;;5.47;3.85;;;;;;;-145.69;88.62;70232.53;5095874;28;20226;-75
2022/08/17 06:31:12;;;;;;;7.00;3.75;;;;;;;-145.69;86.40;70192.75;5095930;28;20198;-75
2022/08/17 06:33:40;;;;;;;5.78;4.25;;;;;;;-145.69;81.89;70178.81;5095672;28;20197;-75
2022/08/17 06:36:22;;;;;;;6.30;3.75;;;;;;;-145.69;79.41;70160.91;5095869;28;20817;-74
2022/08/17 06:38:59;;;;;;;11.70;3.95;;;;;;;-145.69;76.71;70148.97;5103336;28;20644;-75
2022/08/17 06:41:33;;;;;;;6.20;4.13;;;;;;;-145.69;79.39;70129.09;5114975;28;20431;-75
2022/08/17 06:44:12;;;;;;;6.40;3.72;;;;;;;-145.69;71.59;70148.97;5115848;28;20291;-74
2022/08/17 06:46:41;;;;;;;5.13;3.40;;;;;;;-145.69;73.70;70131.06;5116079;28;20768;-74
2022/08/17 06:49:14;;;;;;;6.88;3.30;;;;;;;-145.69;72.81;70148.97;5115530;28;20229;-74
2022/08/17 06:51:46;;;;;;;6.50;3.60;;;;;;;-145.69;72.50;70148.97;5115930;28;20224;-75
2022/08/17 06:54:23;;;;;;;4.57;3.78;;;;;;;-145.69;71.24;70148.97;5097301;28;20683;-76
2022/08/17 06:56:56;;;;;;;7.47;3.85;;;;;;;-145.69;70.95;70115.16;5095435;28;20198;-75
2022/08/17 06:59:30;;;;;;;7.40;3.83;;;;;;;-145.69;73.07;70121.13;5095358;28;20202;-75
2022/08/17 07:02:00;;;;;;;4.18;3.33;;;;;;;-145.69;71.18;70099.25;5091872;28;20681;-75
2022/08/17 07:04:30;;;;;;;5.55;3.20;;;;;;;-145.69;70.94;70059.47;5074785;28;20234;-75
2022/08/17 07:08:00;;;;;;;4.03;3.22;;;;;;;-145.69;68.93;70049.50;5093342;28;20201;-75
2022/08/17 07:09:50;;;;;;;5.28;3.20;;;;;;;-145.69;65.77;70031.63;5115328;28;20193;-74
2022/08/17 07:12:21;;;;;;;6.32;3.05;;;;;;;-145.69;65.69;70037.59;5115456;28;20208;-75
2022/08/17 07:14:50;;;;;;;5.78;3.50;;;;;;;-145.69;67.45;70037.59;5115488;28;20209;-75
2022/08/17 07:17:18;;;;;;;6.80;3.85;;;;;;;-145.69;68.99;70029.63;5115708;28;20325;-75
2022/08/17 07:19:47;;;;;;;7.53;3.60;;;;;;;-145.69;68.07;70021.66;5114465;28;20198;-75
2022/08/17 07:22:21;;;;;;;7.15;3.63;;;;;;;-145.69;68.57;70017.69;5094832;28;20205;-75
2022/08/17 07:24:56;;;;;;;5.50;3.53;;;;;;;-145.69;70.62;70005.75;5094913;28;20213;-75
2022/08/17 07:27:26;;;;;;;6.97;3.60;;;;;;;-145.69;65.44;69973.94;5094558;28;20225;-75
2022/08/17 07:29:56;;;;;;;4.40;3.25;;;;;;;-145.69;62.68;69938.13;5094629;28;20206;-75
2022/08/17 07:32:30;;;;;;;6.75;3.20;;;;;;;-145.69;64.64;69946.09;5100665;28;20197;-74
2022/08/17 07:35:22;;;;;;;7.22;3.72;;;;;;;-145.69;64.85;70061.44;5115084;28;20208;-75
2022/08/17 07:37:53;;;;;;;7.20;3.40;;;;;;;-145.69;64.83;70065.44;5099734;28;20207;-76
2022/08/17 07:40:32;;;;;;;8.15;3.63;;;;;;;-145.69;66.68;70093.28;5114807;28;20201;-76
2022/08/17 07:43:05;;;;;;;6.97;3.50;;;;;;;-145.69;67.63;70099.25;5114973;28;20193;-75
2022/08/17 07:48:22;;;;;;;7.45;3.72;;;;;;;-145.69;68.82;70121.13;5094149;28;20589;-76
2022/08/17 07:50:52;;;;;;;11.18;3.40;;;;;;;-145.69;68.11;70119.13;5094384;28;20556;-77
2022/08/17 07:53:22;;;;;;;6.97;3.63;;;;;;;-145.69;69.16;70113.16;5093921;28;20564;-76
2022/08/17 07:55:50;;;;;;;5.38;3.60;;;;;;;-145.69;67.59;70097.25;5094491;28;20197;-76
2022/08/17 07:58:19;;;;;;;8.48;3.70;;;;;;;-145.69;69.74;70101.25;5103867;28;20201;-76
2022/08/17 08:00:46;;;;;;;5.07;3.17;;;;;;;-145.69;69.33;70071.41;5113609;28;20205;-76
2022/08/17 08:03:20;;;;;;;4.43;3.50;;;;;;;-145.69;69.44;70075.38;5110662;28;20194;-76
2022/08/17 08:05:50;;;;;;;5.78;3.40;;;;;;;-145.69;67.40;70061.44;5114337;28;20238;-76
2022/08/17 08:08:33;;;;;;;5.85;3.30;;;;;;;-145.69;67.85;70041.56;5114169;28;20229;-76
2022/08/17 08:11:09;;;;;;;7.88;3.60;;;;;;;-145.69;65.60;70031.63;5112555;28;20193;-75
2022/08/17 08:13:41;;;;;;;7.18;3.38;;;;;;;-145.69;67.05;70029.63;5114405;28;20189;-77
2022/08/17 08:16:29;;;;;;;6.15;3.53;;;;;;;-145.69;63.98;70041.56;5103713;28;20197;-77
2022/08/17 08:18:58;;;;;;;10.07;3.58;;;;;;;-145.69;66.31;70049.50;5090366;28;20225;-76
2022/08/17 08:21:35;;;;;;;6.95;3.35;;;;;;;-145.69;65.03;70037.59;5093701;28;20206;-76
2022/08/17 08:24:24;;;;;;;7.35;3.00;;;;;;;-145.69;64.45;69997.78;5084966;28;20285;-76
2022/08/17 08:26:58;;;;;;;4.95;3.25;;;;;;;-145.69;61.30;69934.16;5073177;28;20213;-76
2022/08/17 08:29:36;;;;;;;6.20;2.95;;;;;;;-145.69;61.06;69882.44;5088982;28;20233;-76
2022/08/17 08:32:13;;;;;;;3.53;3.08;;;;;;;-145.69;57.10;69840.66;5093409;28;20290;-76
2022/08/17 08:34:47;;;;;;;3.83;2.65;;;;;;;-145.69;56.91;69846.63;5093728;28;20202;-76
2022/08/17 08:37:26;;;;;;;5.35;2.90;;;;;;;-145.69;55.14;69830.72;5093505;28;20202;-76
2022/08/17 08:40:02;;;;;;;4.85;2.67;;;;;;;-145.69;54.69;69790.94;5093337;28;20691;-76
2022/08/17 08:42:39;;;;;;;3.92;2.90;;;;;;;-145.69;54.03;69782.97;5093628;28;20202;-76
2022/08/17 08:45:11;;;;;;;3.92;2.22;;;;;;;-145.69;55.42;69798.88;5108795;28;20196;-75
2022/08/17 08:47:56;;;;;;;5.72;2.78;;;;;;;-145.69;55.65;69838.66;5113694;28;20197;-75
2022/08/17 08:50:31;;;;;;;3.25;2.58;;;;;;;-145.69;54.55;69779.00;5113635;27;20205;-75
2022/08/17 08:53:22;;;;;;;5.85;2.30;;;;;;;-145.69;54.88;69818.78;5113411;28;20231;-75
2022/08/17 08:55:54;;;;;;;3.67;2.72;;;;;;;-145.69;53.75;69860.53;5113035;28;20197;-76
2022/08/17 08:58:31;;;;;;;4.53;2.60;;;;;;;-145.69;55.01;69860.53;5103682;28;20194;-75
2022/08/17 09:00:59;;;;;;;3.05;2.40;;;;;;;-145.69;55.66;69838.66;5093362;28;20230;-75
2022/08/17 09:03:59;;;;;;;3.60;2.17;;;;;;;-145.69;55.00;69848.63;5092003;28;20205;-76
2022/08/17 09:06:48;;;;;;;3.38;2.22;;;;;;;-145.69;56.85;69852.59;5073028;28;20202;-76
2022/08/17 09:09:26;;;;;;;3.63;2.30;;;;;;;-145.69;55.11;69842.66;5072840;28;20230;-75
2022/08/17 09:12:02;;;;;;;2.47;2.10;;;;;;;-145.69;54.43;69782.97;5091884;28;20192;-75
2022/08/17 09:14:36;;;;;;;2.25;1.70;;;;;;;-145.69;54.21;69818.78;5120320;27;20288;-75
2022/08/17 09:17:06;;;;;;;3.22;1.98;;;;;;;-145.69;54.55;69800.88;5120243;27;20203;-77
2022/08/17 09:19:38;;;;;;;3.22;2.05;;;;;;;-145.69;52.65;69767.06;5120426;27;20208;-76
2022/08/17 09:22:10;;;;;;;2.08;1.60;;;;;;;-145.69;52.58;69759.09;5119997;27;20200;-75
2022/08/17 09:24:42;;;;;;;4.50;2.00;;;;;;;-145.69;54.08;69786.94;5120018;27;20207;-76
2022/08/17 09:27:14;;;;;;;2.55;2.08;;;;;;;-145.69;54.31;69780.97;5079544;28;20194;-75
2022/08/17 09:29:47;;;;;;;3.20;2.00;;;;;;;-145.69;52.37;69784.97;5078930;28;20700;-79
2022/08/17 09:32:17;;;;;;;2.97;2.13;;;;;;;-145.69;53.60;69830.72;5079329;28;20205;-76
2022/08/17 09:34:50;;;;;;;3.08;2.08;;;;;;;-145.69;52.37;69794.91;5079264;28;20214;-75
2022/08/17 09:37:22;;;;;;;3.50;2.13;;;;;;;-145.69;53.36;69790.94;5079389;28;20244;-76
2022/08/17 09:39:59;;;;;;;4.38;2.15;;;;;;;-145.69;51.76;69782.97;5099331;28;20193;-79
2022/08/17 09:42:31;;;;;;;4.18;2.10;;;;;;;-145.69;52.00;69755.13;5119869;27;20228;-75
2022/08/17 09:45:07;;;;;;;2.80;1.85;;;;;;;-145.69;51.03;69733.25;5118423;27;20430;-77
2022/08/17 09:47:44;;;;;;;4.80;2.15;;;;;;;-145.69;51.33;69749.16;5119959;27;20208;-77
2022/08/17 09:50:16;;;;;;;3.38;1.98;;;;;;;-145.69;52.79;69743.19;5119963;27;20204;-78
2022/08/17 09:52:43;;;;;;;2.92;2.13;;;;;;;-145.69;52.14;69737.22;5102544;27;20198;-75
2022/08/17 09:55:10;;;;;;;2.50;2.20;;;;;;;-145.69;50.43;69749.16;5099508;28;20206;-77
2022/08/17 09:57:58;;;;;;;3.53;2.20;;;;;;;-145.69;49.55;69779.00;5099130;28;20194;-78
2022/08/17 10:00:33;;;;;;;3.63;2.30;;;;;;;-145.69;52.19;69796.91;5099537;28;20198;-76
2022/08/17 10:03:24;;;;;;;4.38;2.13;;;;;;;-145.69;50.81;69763.09;5100476;28;20196;-74
2022/08/17 10:05:59;;;;;;;2.88;2.00;;;;;;;-145.69;51.39;69711.38;5099032;28;20225;-75
2022/08/17 10:08:33;;;;;;;2.63;2.17;;;;;;;-145.69;48.06;69683.53;5099102;28;20229;-76
2022/08/17 10:11:22;;;;;;;3.60;1.80;;;;;;;-145.69;46.46;69649.72;5099449;28;20275;-76
2022/08/17 10:13:55;;;;;;;3.72;2.20;;;;;;;-145.69;44.78;69596.00;5101271;28;20584;-77
2022/08/17 10:16:30;;;;;;;4.20;1.83;;;;;;;-145.69;43.68;69546.28;5119536;27;20201;-76
2022/08/17 10:19:06;;;;;;;2.60;1.98;;;;;;;-145.69;42.54;69566.16;5119539;27;20621;-76
2022/08/17 10:27:12;;;;;;;2.88;2.20;;;;;;;-145.69;43.15;69647.72;5116291;28;20204;-78
2022/08/17 10:29:44;;;;;;;4.35;2.15;;;;;;;-145.69;43.84;69663.63;5098597;28;20225;-75
2022/08/17 10:32:27;;;;;;;2.58;2.10;;;;;;;-145.69;44.66;69647.72;5095880;28;20205;-75
2022/08/17 10:35:12;;;;;;;2.60;1.80;;;;;;;-145.69;43.97;69645.72;5096828;28;20268;-76
2022/08/17 10:37:55;;;;;;;5.82;2.50;;;;;;;-145.69;44.63;69629.81;5103923;28;20193;-75
2022/08/17 10:40:34;;;;;;;4.93;2.38;;;;;;;-145.69;44.09;69607.94;5116173;28;20201;-76
2022/08/17 10:43:19;;;;;;;6.57;2.53;;;;;;;-145.69;41.70;69574.13;5115973;28;20205;-75
2022/08/17 10:45:52;;;;;;;4.10;2.13;;;;;;;-145.69;44.14;69516.44;5115937;28;20197;-75
2022/08/17 10:48:30;;;;;;;4.03;2.38;;;;;;;-145.69;40.64;69478.66;5115992;28;20221;-75
2022/08/17 10:51:00;;;;;;;3.47;2.08;;;;;;;-145.69;42.38;69472.69;5095567;28;20598;-75
2022/08/17 10:53:55;;;;;;;4.82;2.28;;;;;;;-145.69;41.20;69472.69;5095386;28;20194;-75
2022/08/17 10:56:40;;;;;;;3.17;2.10;;;;;;;-145.69;40.31;69458.78;5070708;28;20205;-75
2022/08/17 10:59:07;;;;;;;4.03;2.10;;;;;;;-145.69;39.97;69488.59;5095251;28;20206;-75
2022/08/17 11:01:59;;;;;;;3.85;2.45;;;;;;;-145.69;39.55;69484.63;5095043;28;20255;-79
2022/08/17 11:04:46;;;;;;;4.53;2.03;;;;;;;-145.69;40.04;69564.19;5107312;28;20221;-75
2022/08/17 11:07:20;;;;;;;6.85;2.30;;;;;;;-145.69;41.11;69637.78;5094761;28;20664;-79
2022/08/17 11:10:10;;;;;;;5.55;2.20;;;;;;;-145.69;44.22;69767.06;5095259;28;20225;-78
2022/08/17 11:12:43;;;;;;;3.80;2.35;;;;;;;-145.69;45.47;69812.81;5094769;28;20560;-78
2022/08/17 11:15:25;;;;;;;4.85;2.53;;;;;;;-145.69;46.42;69858.56;5094969;28;20557;-80
2022/08/17 11:18:10;;;;;;;3.97;2.70;;;;;;;-145.69;52.86;69922.22;5102211;28;20277;-78
2022/08/17 11:21:00;;;;;;;7.28;3.42;;;;;;;-145.69;65.72;70093.28;5094942;28;20560;-77
2022/08/17 11:23:44;;;;;;;6.55;3.05;;;;;;;-145.69;66.58;70125.09;5094886;28;20202;-76
2022/08/17 11:26:24;;;;;;;5.40;3.70;;;;;;;-145.69;68.00;70121.13;5094776;28;20206;-78
2022/08/17 11:28:55;;;;;;;7.40;3.50;;;;;;;-145.69;66.95;70123.13;5094824;28;20228;-78
2022/08/17 11:31:32;;;;;;;4.35;3.08;;;;;;;-145.69;67.93;70037.59;5099600;28;20736;-74
2022/08/17 11:34:06;;;;;;;4.78;3.50;;;;;;;-145.69;61.03;69894.38;5114398;28;20453;-77
2022/08/17 11:36:55;;;;;;;7.75;3.30;;;;;;;-145.69;57.08;69830.72;5113721;28;20682;-79
2022/08/17 11:39:48;;;;;;;4.18;3.05;;;;;;;-145.69;55.75;69818.78;5114923;28;20232;-76
2022/08/17 11:42:27;;;;;;;3.28;2.78;;;;;;;-145.69;52.31;69822.75;5114348;28;20197;-78
2022/08/17 11:44:57;;;;;;;4.85;3.00;;;;;;;-145.69;50.11;69792.91;5110174;28;20213;-77
2022/08/17 11:54:08;;;;;;;3.50;2.35;;;;;;;-145.69;48.64;69719.31;5094274;28;20239;-76
2022/08/17 11:56:46;;;;;;;7.30;2.83;;;;;;;-145.69;48.03;69695.47;5094207;28;20224;-75
2022/08/17 11:59:49;;;;;;;3.67;2.30;;;;;;;-145.69;40.20;69691.47;5099422;28;20208;-78
2022/08/17 12:02:41;;;;;;;4.57;2.60;;;;;;;-145.69;42.04;69655.69;5114481;28;20242;-76
2022/08/17 12:05:35;;;;;;;4.55;2.40;;;;;;;-145.69;41.18;69663.63;5114225;28;20237;-77
2022/08/17 12:08:17;;;;;;;4.32;2.55;;;;;;;-145.69;41.82;69641.75;5114174;28;20194;-75